createdAt,value
2023-01-23T00:01:08.412Z,10.68
2023-01-23T00:03:38.355Z,10.50
2023-01-23T00:06:10.239Z,10.00
2023-01-23T00:08:38.424Z,10.18
2023-01-23T00:11:08.489Z,9.43
2023-01-23T00:13:36.185Z,10.80
2023-01-23T00:16:06.095Z,10.25
2023-01-23T00:18:33.234Z,10.88
2023-01-23T00:21:09.015Z,9.95
2023-01-23T00:23:36.537Z,10.00
2023-01-23T00:26:05.808Z,9.77
2023-01-23T00:28:33.737Z,10.88
2023-01-23T00:31:07.069Z,8.80
2023-01-23T00:33:34.770Z,8.88
2023-01-23T00:36:02.269Z,9.85
2023-01-23T00:38:32.736Z,10.00
2023-01-23T00:41:00.012Z,9.35
2023-01-23T00:43:27.120Z,10.00
2023-01-23T00:45:55.118Z,9.38
2023-01-23T00:48:22.282Z,8.95
2023-01-23T00:50:49.775Z,9.65
2023-01-23T00:53:17.089Z,9.60
2023-01-23T00:55:44.157Z,9.27
2023-01-23T00:58:11.909Z,8.35
2023-01-23T01:00:40.169Z,9.50
2023-01-23T01:03:08.003Z,10.50
2023-01-23T01:05:35.539Z,11.13
2023-01-23T01:08:04.636Z,10.73
2023-01-23T01:10:33.257Z,9.60
2023-01-23T01:13:02.591Z,9.48
2023-01-23T01:15:30.248Z,9.23
2023-01-23T01:17:59.259Z,9.52
2023-01-23T01:20:28.192Z,8.77
2023-01-23T01:22:58.169Z,8.70
2023-01-23T01:25:25.565Z,8.80
2023-01-23T01:27:56.177Z,8.35
2023-01-23T01:30:25.850Z,8.95
2023-01-23T01:32:54.634Z,9.27
2023-01-23T01:35:22.464Z,8.82
2023-01-23T01:37:51.194Z,8.70
2023-01-23T01:40:22.284Z,9.45
2023-01-23T01:42:56.680Z,8.57
2023-01-23T01:46:06.596Z,8.40
2023-01-23T01:48:46.135Z,8.68
2023-01-23T01:51:17.705Z,8.20
2023-01-23T01:53:47.774Z,9.05
2023-01-23T01:56:16.176Z,8.93
2023-01-23T01:58:47.329Z,9.10
2023-01-23T02:01:15.068Z,8.68
2023-01-23T02:03:45.091Z,9.07
2023-01-23T02:06:12.920Z,10.50
2023-01-23T02:08:44.705Z,9.68
2023-01-23T02:11:12.080Z,10.10
2023-01-23T02:13:40.034Z,10.90
2023-01-23T02:16:10.613Z,9.45
2023-01-23T02:18:44.650Z,8.02
2023-01-23T02:21:14.329Z,8.10
2023-01-23T02:23:49.190Z,8.05
2023-01-23T02:26:27.841Z,8.55
2023-01-23T02:28:56.013Z,8.75
2023-01-23T02:31:27.241Z,8.70
2023-01-23T02:33:57.113Z,8.30
2023-01-23T02:36:27.988Z,7.97
2023-01-23T02:39:15.626Z,8.20
2023-01-23T02:41:47.377Z,8.38
2023-01-23T02:44:18.421Z,9.23
2023-01-23T02:46:51.600Z,8.07
2023-01-23T02:49:19.021Z,8.27
2023-01-23T02:51:46.171Z,8.25
2023-01-23T02:54:13.526Z,8.50
2023-01-23T02:56:42.416Z,37.78
2023-01-23T02:59:30.329Z,8.93
2023-01-23T03:01:57.845Z,10.57
2023-01-23T03:04:25.522Z,13.60
2023-01-23T03:06:52.668Z,10.07
2023-01-23T03:09:20.153Z,9.20
2023-01-23T03:11:47.786Z,8.80
2023-01-23T03:14:18.200Z,9.40
2023-01-23T03:16:50.405Z,8.50
2023-01-23T03:19:21.218Z,7.70
2023-01-23T03:21:49.387Z,8.18
2023-01-23T03:24:17.220Z,7.93
2023-01-23T03:26:46.956Z,7.50
2023-01-23T03:29:37.504Z,8.35
2023-01-23T03:32:06.185Z,7.63
2023-01-23T03:34:33.831Z,8.82
2023-01-23T03:37:01.558Z,8.88
2023-01-23T03:39:50.449Z,8.50
2023-01-23T03:42:19.737Z,8.80
2023-01-23T03:44:49.311Z,8.00
2023-01-23T03:47:16.609Z,9.25
2023-01-23T03:49:44.055Z,9.07
2023-01-23T03:52:11.336Z,8.60
2023-01-23T03:54:38.870Z,9.43
2023-01-23T03:57:09.585Z,8.43
2023-01-23T03:59:56.698Z,8.82
2023-01-23T04:02:29.822Z,9.20
2023-01-23T04:04:57.085Z,10.30
2023-01-23T04:07:24.851Z,9.23
2023-01-23T04:09:52.279Z,9.70
2023-01-23T04:12:20.047Z,10.02
2023-01-23T04:14:49.028Z,9.65
2023-01-23T04:17:16.555Z,9.90
2023-01-23T04:19:44.073Z,8.88
2023-01-23T04:22:11.691Z,9.10
2023-01-23T04:24:44.454Z,9.57
2023-01-23T04:27:12.128Z,10.70
2023-01-23T04:29:39.985Z,9.43
2023-01-23T04:32:10.216Z,9.88
2023-01-23T04:34:44.212Z,9.27
2023-01-23T04:37:11.618Z,9.40
2023-01-23T04:39:39.962Z,8.50
2023-01-23T04:42:07.143Z,9.13
2023-01-23T04:44:54.361Z,8.63
2023-01-23T04:47:41.349Z,8.10
2023-01-23T04:50:11.827Z,8.07
2023-01-23T04:52:41.823Z,8.73
2023-01-23T04:55:09.906Z,9.07
2023-01-23T04:57:37.057Z,7.93
2023-01-23T05:00:24.318Z,8.15
2023-01-23T05:02:52.214Z,8.63
2023-01-23T05:05:21.510Z,8.73
2023-01-23T05:07:52.104Z,8.00
2023-01-23T05:10:20.479Z,8.30
2023-01-23T05:12:49.269Z,8.32
2023-01-23T05:15:17.425Z,8.27
2023-01-23T05:17:47.198Z,8.88
2023-01-23T05:20:14.650Z,9.10
2023-01-23T05:22:58.614Z,7.63
2023-01-23T05:25:34.285Z,8.57
2023-01-23T05:28:02.378Z,7.63
2023-01-23T05:30:31.650Z,7.55
2023-01-23T05:33:15.108Z,8.40
2023-01-23T05:35:42.412Z,9.00
2023-01-23T05:38:11.893Z,12.10
2023-01-23T05:40:39.026Z,18.85
2023-01-23T05:43:26.515Z,9.18
2023-01-23T05:46:02.014Z,10.27
2023-01-23T05:48:41.305Z,9.88
2023-01-23T05:51:11.145Z,9.35
2023-01-23T05:53:38.386Z,8.98
2023-01-23T05:56:07.489Z,8.20
2023-01-23T05:58:41.633Z,8.60
2023-01-23T06:01:28.685Z,7.72
2023-01-23T06:04:16.570Z,8.95
2023-01-23T06:06:54.204Z,8.77
2023-01-23T06:09:21.743Z,9.00
2023-01-23T06:11:49.208Z,9.18
2023-01-23T06:14:16.471Z,9.30
2023-01-23T06:16:43.661Z,8.98
2023-01-23T06:19:11.251Z,9.07
2023-01-23T06:21:38.225Z,8.98
2023-01-23T06:24:05.941Z,9.02
2023-01-23T06:26:34.165Z,8.85
2023-01-23T06:29:02.135Z,8.50
2023-01-23T06:31:32.503Z,8.40
2023-01-23T06:34:01.467Z,10.27
2023-01-23T06:36:32.874Z,9.43
2023-01-23T06:39:00.680Z,10.13
2023-01-23T06:41:34.483Z,9.30
2023-01-23T06:44:04.660Z,9.13
2023-01-23T06:46:31.875Z,8.80
2023-01-23T06:48:59.640Z,9.05
2023-01-23T06:51:28.196Z,9.00
2023-01-23T06:53:57.255Z,8.32
2023-01-23T06:56:24.742Z,9.00
2023-01-23T06:58:53.245Z,8.30
2023-01-23T07:01:26.823Z,9.32
2023-01-23T07:04:09.119Z,8.07
2023-01-23T07:06:37.907Z,9.45
2023-01-23T07:09:05.671Z,8.80
2023-01-23T07:11:32.827Z,8.70
2023-01-23T07:14:00.184Z,8.00
2023-01-23T07:16:28.693Z,8.60
2023-01-23T07:18:59.168Z,7.93
2023-01-23T07:21:26.718Z,8.60
2023-01-23T07:23:53.890Z,7.93
2023-01-23T07:26:21.689Z,8.23
2023-01-23T07:28:48.760Z,7.93
2023-01-23T07:31:16.646Z,7.78
2023-01-23T07:33:44.023Z,8.35
2023-01-23T07:36:14.124Z,7.53
2023-01-23T07:38:41.750Z,8.13
2023-01-23T07:41:09.366Z,8.02
2023-01-23T07:43:37.378Z,7.80
2023-01-23T07:46:04.695Z,8.45
2023-01-23T07:48:32.048Z,8.43
2023-01-23T07:51:02.555Z,8.05
2023-01-23T07:53:30.396Z,7.28
2023-01-23T07:55:57.783Z,7.85
2023-01-23T07:58:25.121Z,6.78
2023-01-23T08:00:52.452Z,7.20
2023-01-23T08:03:21.115Z,7.57
2023-01-23T08:05:50.479Z,7.85
2023-01-23T08:08:17.877Z,7.13
2023-01-23T08:10:45.173Z,6.93
2023-01-23T08:13:12.679Z,7.18
2023-01-23T08:15:40.330Z,7.93
2023-01-23T08:18:07.928Z,7.30
2023-01-23T08:20:35.474Z,6.75
2023-01-23T08:23:02.730Z,7.38
2023-01-23T08:25:30.476Z,6.82
2023-01-23T08:27:57.804Z,7.05
2023-01-23T08:30:25.198Z,7.13
2023-01-23T08:32:52.581Z,6.95
2023-01-23T08:35:19.986Z,6.25
2023-01-23T08:37:47.212Z,7.20
2023-01-23T08:40:14.541Z,6.68
2023-01-23T08:42:41.979Z,6.78
2023-01-23T08:45:09.682Z,6.80
2023-01-23T08:47:38.271Z,7.43
2023-01-23T08:50:06.976Z,7.63
2023-01-23T08:52:35.539Z,6.97
2023-01-23T08:55:03.211Z,7.70
2023-01-23T08:57:30.554Z,7.95
2023-01-23T08:59:57.626Z,7.90
2023-01-23T09:02:24.830Z,9.70
2023-01-23T09:04:52.281Z,8.45
2023-01-23T09:07:19.526Z,9.05
2023-01-23T09:09:47.516Z,9.30
2023-01-23T09:12:14.601Z,8.23
2023-01-23T09:14:41.957Z,9.07
2023-01-23T09:17:09.411Z,8.57
2023-01-23T09:19:37.261Z,8.38
2023-01-23T09:22:04.598Z,9.18
2023-01-23T09:24:31.941Z,8.85
2023-01-23T09:26:58.987Z,8.90
2023-01-23T09:29:26.394Z,9.05
2023-01-23T09:31:53.532Z,7.93
2023-01-23T09:34:21.012Z,8.75
2023-01-23T09:36:48.143Z,8.88
2023-01-23T09:39:15.525Z,9.00
2023-01-23T09:41:45.837Z,9.70
2023-01-23T09:44:22.842Z,9.63
2023-01-23T09:46:51.145Z,9.77
2023-01-23T09:49:35.412Z,9.63
2023-01-23T09:52:11.416Z,9.43
2023-01-23T09:54:47.814Z,11.00
2023-01-23T09:57:23.040Z,10.02
2023-01-23T10:00:00.321Z,10.90
2023-01-23T10:02:28.595Z,10.43
2023-01-23T10:04:58.655Z,10.63
2023-01-23T10:07:45.938Z,11.30
2023-01-23T10:10:52.894Z,11.10
2023-01-23T10:13:31.484Z,10.43
2023-01-23T10:15:59.687Z,10.95
2023-01-23T10:18:41.441Z,10.85
2023-01-23T10:21:08.739Z,11.20
2023-01-23T10:23:42.135Z,11.98
2023-01-23T10:26:19.158Z,10.77
2023-01-23T10:28:47.573Z,11.73
2023-01-23T10:31:30.914Z,10.82
2023-01-23T10:34:20.350Z,11.80
2023-01-23T10:37:21.881Z,11.95
2023-01-23T10:39:59.753Z,11.00
2023-01-23T10:42:28.642Z,10.75
2023-01-23T10:44:55.871Z,11.65
2023-01-23T10:47:46.329Z,11.40
2023-01-23T10:50:16.288Z,11.25
2023-01-23T10:52:45.935Z,12.50
2023-01-23T10:55:21.006Z,11.10
2023-01-23T10:57:52.972Z,10.82
2023-01-23T11:00:27.712Z,10.68
2023-01-23T11:02:55.106Z,12.00
2023-01-23T11:05:52.186Z,11.40
2023-01-23T11:08:33.443Z,10.30
2023-01-23T11:11:16.769Z,10.93
2023-01-23T11:13:46.868Z,10.30
2023-01-23T11:16:17.046Z,11.00
2023-01-23T11:18:54.581Z,11.18
2023-01-23T11:21:26.961Z,10.65
2023-01-23T11:24:39.866Z,10.60
2023-01-23T11:27:15.601Z,10.15
2023-01-23T11:30:09.962Z,10.60
2023-01-23T11:32:59.713Z,10.10
2023-01-23T11:35:59.804Z,10.77
2023-01-23T11:38:31.266Z,10.60
2023-01-23T11:40:59.053Z,10.13
2023-01-23T11:43:26.190Z,10.32
2023-01-23T11:46:02.436Z,9.48
2023-01-23T11:48:52.563Z,9.25
2023-01-23T11:51:26.669Z,9.68
2023-01-23T11:54:09.845Z,9.90
2023-01-23T11:56:49.712Z,9.10
2023-01-23T11:59:45.400Z,9.95
2023-01-23T12:02:52.367Z,9.85
2023-01-23T12:05:34.400Z,10.82
2023-01-23T12:08:41.453Z,12.63
2023-01-23T12:11:20.422Z,10.50
2023-01-23T12:13:48.926Z,10.55
2023-01-23T12:16:17.243Z,10.32
2023-01-23T12:18:54.207Z,10.25
2023-01-23T12:21:26.542Z,10.15
2023-01-23T12:24:08.126Z,11.27
2023-01-23T12:26:43.178Z,10.23
2023-01-23T12:29:22.695Z,10.75
2023-01-23T12:32:05.932Z,10.00
2023-01-23T12:34:41.265Z,10.75
2023-01-23T12:37:22.294Z,10.27
2023-01-23T12:40:22.659Z,10.68
2023-01-23T12:43:14.684Z,10.63
2023-01-23T12:45:54.632Z,11.15
2023-01-23T12:48:28.814Z,10.80
2023-01-23T12:51:06.238Z,10.45
2023-01-23T12:53:38.653Z,9.90
2023-01-23T12:56:15.071Z,11.10
2023-01-23T12:58:51.423Z,11.18
2023-01-23T13:01:37.226Z,11.40
2023-01-23T13:04:05.709Z,11.18
2023-01-23T13:06:51.053Z,10.77
2023-01-23T13:09:32.585Z,11.48
2023-01-23T13:12:22.980Z,11.73
2023-01-23T13:15:14.980Z,12.02
2023-01-23T13:17:49.140Z,11.65
2023-01-23T13:20:53.938Z,10.73
2023-01-23T13:23:38.227Z,12.70
2023-01-23T13:26:25.354Z,8.75
2023-01-23T13:28:55.316Z,11.88
2023-01-23T13:31:41.780Z,11.32
2023-01-23T13:34:16.562Z,12.23
2023-01-23T13:36:47.184Z,12.43
2023-01-23T13:39:16.533Z,11.93
2023-01-23T13:41:46.590Z,11.88
2023-01-23T13:44:27.151Z,11.85
2023-01-23T14:22:08.066Z,12.27
2023-01-23T14:24:53.296Z,33.95
2023-01-23T14:27:31.676Z,56.95
2023-01-23T14:30:02.141Z,18.15
2023-01-23T14:32:33.301Z,34.00
2023-01-23T14:35:01.592Z,15.43
2023-01-23T14:37:30.692Z,35.80
2023-01-23T14:40:11.795Z,29.73
2023-01-23T14:42:40.548Z,18.40
2023-01-23T14:45:11.847Z,19.13
2023-01-23T14:47:45.470Z,21.83
2023-01-23T14:50:20.032Z,16.00
2023-01-23T14:55:29.799Z,13.40
2023-01-23T14:58:00.401Z,16.42
2023-01-23T15:00:29.611Z,16.45
2023-01-23T15:02:57.414Z,15.52
2023-01-23T15:05:28.341Z,15.15
2023-01-23T15:07:58.652Z,22.25
2023-01-23T15:10:41.979Z,16.27
2023-01-23T15:13:21.062Z,14.48
2023-01-23T15:15:55.771Z,13.93
2023-01-23T15:18:27.822Z,13.85
2023-01-23T15:20:57.596Z,25.33
2023-01-23T15:23:31.736Z,14.40
2023-01-23T15:26:15.016Z,16.90
2023-01-23T15:28:53.613Z,36.15
2023-01-23T15:31:27.010Z,13.75
2023-01-23T15:33:56.601Z,14.07
2023-01-23T15:36:29.810Z,13.68
2023-01-23T15:38:59.541Z,13.63
2023-01-23T15:41:48.848Z,14.75
2023-01-23T15:44:19.723Z,14.80
2023-01-23T15:46:47.871Z,13.20
2023-01-23T15:49:24.796Z,17.77
2023-01-23T15:51:55.614Z,17.98
2023-01-23T15:54:29.064Z,15.27
2023-01-23T15:57:06.998Z,16.13
2023-01-23T15:59:36.112Z,14.68
2023-01-23T16:02:04.123Z,15.38
2023-01-23T16:04:31.481Z,27.25
2023-01-23T16:07:01.681Z,15.48
2023-01-23T16:09:31.836Z,14.23
2023-01-23T16:12:00.686Z,14.18
2023-01-23T16:14:28.722Z,14.65
2023-01-23T16:17:00.114Z,14.75
2023-01-23T16:19:31.888Z,18.40
2023-01-23T16:22:05.250Z,19.33
2023-01-23T16:24:39.478Z,16.43
2023-01-23T16:27:09.664Z,16.00
2023-01-23T16:29:37.178Z,14.18
2023-01-23T16:32:04.734Z,14.38
2023-01-23T16:34:32.172Z,13.02
2023-01-23T16:37:01.191Z,17.45
2023-01-23T16:39:32.045Z,14.60
2023-01-23T16:41:59.564Z,15.82
2023-01-23T16:44:27.324Z,15.85
2023-01-23T16:46:54.972Z,15.40
2023-01-23T16:49:22.289Z,14.15
2023-01-23T16:51:59.422Z,14.98
2023-01-23T16:54:26.863Z,16.58
2023-01-23T16:56:55.446Z,17.15
2023-01-23T16:59:32.914Z,16.35
2023-01-23T17:02:01.654Z,13.65
2023-01-23T17:04:28.869Z,14.20
2023-01-23T17:06:56.307Z,14.30
2023-01-23T17:09:23.387Z,15.00
2023-01-23T17:11:55.822Z,16.17
2023-01-23T17:14:28.771Z,16.20
2023-01-23T17:17:02.321Z,15.43
2023-01-23T17:19:34.251Z,14.30
2023-01-23T17:22:05.004Z,14.55
2023-01-23T17:24:32.679Z,14.27
2023-01-23T17:27:00.029Z,14.40
2023-01-23T17:29:27.517Z,13.85
2023-01-23T17:31:54.761Z,14.98
2023-01-23T17:34:24.710Z,15.93
2023-01-23T17:36:54.510Z,14.40
2023-01-23T17:39:22.090Z,16.88
2023-01-23T17:41:51.453Z,15.48
2023-01-23T17:44:18.501Z,20.10
2023-01-23T17:46:47.599Z,15.88
2023-01-23T17:49:28.446Z,14.25
2023-01-23T17:51:57.495Z,13.75
2023-01-23T17:54:26.443Z,14.25
2023-01-23T17:56:53.934Z,13.77
2023-01-23T17:59:21.390Z,12.77
2023-01-23T18:01:48.460Z,13.95
2023-01-23T18:04:18.346Z,14.25
2023-01-23T18:06:46.385Z,15.00
2023-01-23T18:09:14.540Z,14.65
2023-01-23T18:11:52.056Z,13.73
2023-01-23T18:14:42.357Z,13.82
2023-01-23T18:17:19.867Z,12.65
2023-01-23T18:19:48.079Z,13.48
2023-01-23T18:22:15.714Z,13.32
2023-01-23T18:24:43.441Z,13.30
2023-01-23T18:27:18.951Z,14.05
2023-01-23T18:29:49.685Z,13.90
2023-01-23T18:32:39.902Z,14.63
2023-01-23T18:35:31.339Z,12.75
2023-01-23T18:38:18.554Z,13.98
2023-01-23T18:41:02.564Z,14.50
2023-01-23T18:43:41.061Z,11.10
2023-01-23T18:46:18.367Z,13.90
2023-01-23T18:48:47.565Z,14.00
2023-01-23T18:51:34.433Z,13.48
2023-01-23T18:54:21.143Z,14.18
2023-01-23T18:57:16.587Z,13.95
2023-01-23T19:00:04.002Z,14.55
2023-01-23T19:02:52.786Z,14.95
2023-01-23T19:05:32.859Z,14.20
2023-01-23T19:08:01.555Z,14.30
2023-01-23T19:10:40.097Z,13.50
2023-01-23T19:13:20.871Z,14.52
2023-01-23T19:16:25.247Z,13.65
2023-01-23T19:19:15.365Z,12.82
2023-01-23T19:21:46.337Z,13.38
2023-01-23T19:24:15.520Z,12.90
2023-01-23T19:26:43.109Z,14.45
2023-01-23T19:29:21.512Z,14.38
2023-01-23T19:32:03.403Z,14.00
2023-01-23T19:34:33.318Z,15.00
2023-01-23T19:37:00.481Z,13.73
2023-01-23T19:39:29.460Z,14.57
2023-01-23T19:41:59.172Z,13.93
2023-01-23T19:44:28.976Z,12.80
2023-01-23T19:46:56.510Z,12.82
2023-01-23T19:49:25.525Z,11.95
2023-01-23T19:51:52.791Z,12.10
2023-01-23T19:54:22.991Z,11.98
2023-01-23T19:56:51.525Z,12.48
2023-01-23T19:59:18.661Z,12.20
2023-01-23T20:01:48.719Z,12.15
2023-01-23T20:04:18.757Z,12.40
2023-01-23T20:06:46.170Z,11.50
2023-01-23T20:09:15.097Z,11.38
2023-01-23T20:11:43.018Z,12.70
2023-01-23T20:14:10.546Z,11.88
2023-01-23T20:16:40.518Z,12.50
2023-01-23T20:19:07.791Z,11.82
2023-01-23T20:21:34.996Z,12.48
2023-01-23T20:24:02.316Z,12.48
2023-01-23T20:26:29.483Z,12.10
2023-01-23T20:28:58.195Z,12.27
2023-01-23T20:31:25.638Z,13.32
2023-01-23T20:33:54.143Z,13.23
2023-01-23T20:36:21.660Z,14.60
2023-01-23T20:38:48.873Z,13.80
2023-01-23T20:41:19.031Z,12.60
2023-01-23T20:43:46.683Z,13.27
2023-01-23T20:46:15.396Z,13.55
2023-01-23T20:48:44.331Z,13.05
2023-01-23T20:51:12.868Z,12.48
2023-01-23T20:53:40.990Z,13.43
2023-01-23T20:56:12.164Z,13.02
2023-01-23T20:59:02.463Z,12.95
2023-01-23T21:01:52.856Z,12.48
2023-01-23T21:04:20.437Z,12.30
2023-01-23T21:06:47.987Z,12.77
2023-01-23T21:09:16.041Z,12.50
2023-01-23T21:11:43.239Z,13.05
2023-01-23T21:14:10.345Z,11.95
2023-01-23T21:16:37.610Z,12.05
2023-01-23T21:19:04.987Z,12.57
2023-01-23T21:21:32.486Z,11.85
2023-01-23T21:23:59.715Z,11.68
2023-01-23T21:26:28.493Z,11.85
2023-01-23T21:28:57.640Z,12.50
2023-01-23T21:31:28.477Z,11.95
2023-01-23T21:33:56.625Z,11.82
2023-01-23T21:36:25.553Z,11.95
2023-01-23T21:38:53.548Z,11.82
2023-01-23T21:41:21.706Z,12.77
2023-01-23T21:43:49.043Z,11.90
2023-01-23T21:46:16.592Z,12.25
2023-01-23T21:48:44.191Z,12.60
2023-01-23T21:51:15.147Z,13.38
2023-01-23T21:53:44.377Z,12.93
2023-01-23T21:56:13.576Z,12.88
2023-01-23T21:58:42.486Z,13.13
2023-01-23T22:01:35.623Z,12.10
2023-01-23T22:04:07.609Z,11.75
2023-01-23T22:06:36.091Z,12.10
2023-01-23T22:09:04.269Z,12.20
2023-01-23T22:11:31.594Z,11.57
2023-01-23T22:13:59.017Z,11.77
2023-01-23T22:16:46.476Z,12.60
2023-01-23T22:19:16.300Z,12.73
2023-01-23T22:21:44.511Z,12.90
2023-01-23T22:24:11.924Z,12.65
2023-01-23T22:26:39.032Z,13.40
2023-01-23T22:29:06.272Z,12.75
2023-01-23T22:31:33.500Z,13.13
2023-01-23T22:34:01.118Z,13.13
2023-01-23T22:36:28.692Z,12.75
2023-01-23T22:38:55.922Z,11.73
2023-01-23T22:41:23.796Z,13.63
2023-01-23T22:43:55.277Z,13.15
2023-01-23T22:46:23.683Z,13.40
2023-01-23T22:48:51.327Z,13.55
2023-01-23T22:51:24.218Z,13.75
2023-01-23T22:53:52.874Z,13.32
2023-01-23T22:56:20.257Z,14.07
2023-01-23T22:58:49.126Z,14.00
2023-01-23T23:01:17.598Z,14.23
2023-01-23T23:03:45.130Z,14.77
2023-01-23T23:06:15.504Z,15.13
2023-01-23T23:08:46.388Z,15.63
2023-01-23T23:11:18.052Z,16.13
2023-01-23T23:13:45.613Z,18.35
2023-01-23T23:16:17.967Z,20.08
2023-01-23T23:18:47.476Z,19.30
2023-01-23T23:21:17.270Z,17.67
2023-01-23T23:23:46.608Z,16.83
2023-01-23T23:26:14.012Z,15.20
2023-01-23T23:28:42.265Z,15.55
2023-01-23T23:31:10.080Z,15.27
2023-01-23T23:33:37.892Z,15.50
2023-01-23T23:36:06.001Z,15.90
2023-01-23T23:38:33.536Z,16.10
2023-01-23T23:41:03.568Z,16.70
2023-01-23T23:43:31.191Z,15.20
2023-01-23T23:46:00.689Z,16.10
2023-01-23T23:48:29.052Z,15.63
2023-01-23T23:50:56.823Z,15.70
2023-01-23T23:53:23.802Z,16.13
2023-01-23T23:55:51.040Z,14.77
2023-01-23T23:58:19.159Z,15.93
